Time;durP1;ratioP1;P1;durP2;ratioP2;P2;SDS_P1;SDS_P2;PMS_P1;PMS_P2;Temp;Humidity;BMP_temperature;BMP_pressure;BME280_temperature;BME280_humidity;BME280_pressure;Samples;Min_cycle;Max_cycle;Signal;HPM_P1;HPM_P2
2020/12/21 00:02:17;;;;;;;21.20;16.57;;;6.40;99.90;;;;;;5012542;28;20247;-65
2020/12/21 00:04:43;;;;;;;19.60;16.07;;;6.40;99.90;;;;;;5012458;28;20244;-67
2020/12/21 00:07:09;;;;;;;23.70;18.60;;;6.50;99.90;;;;;;5012195;28;20188;-66
2020/12/21 00:09:34;;;;;;;21.00;16.57;;;6.50;99.90;;;;;;5012243;28;20176;-65
2020/12/21 00:12:00;;;;;;;20.37;16.20;;;6.50;99.90;;;;;;5012526;28;20530;-67
2020/12/21 00:14:26;;;;;;;21.27;16.60;;;6.50;99.90;;;;;;5012178;28;20180;-67
2020/12/21 00:16:52;;;;;;;20.67;16.63;;;6.50;99.90;;;;;;5012172;28;20188;-66
2020/12/21 00:19:20;;;;;;;24.17;17.53;;;6.50;99.90;;;;;;5011915;28;20271;-66
2020/12/21 00:21:47;;;;;;;23.80;17.63;;;6.50;99.90;;;;;;5011924;28;20919;-65
2020/12/21 00:24:13;;;;;;;21.07;17.13;;;6.40;99.90;;;;;;5011765;28;20451;-65
2020/12/21 00:26:44;;;;;;;20.60;17.13;;;6.40;99.90;;;;;;5012110;28;20418;-66
2020/12/21 00:29:10;;;;;;;19.83;15.80;;;6.30;99.90;;;;;;5012243;28;20972;-67
2020/12/21 00:31:35;;;;;;;21.20;16.13;;;6.30;99.90;;;;;;5011888;28;20427;-67
2020/12/21 00:34:03;;;;;;;22.97;17.17;;;6.30;99.90;;;;;;5011997;28;20247;-67
2020/12/21 00:36:29;;;;;;;21.23;17.07;;;6.30;99.90;;;;;;5012401;28;20279;-66
2020/12/21 00:38:56;;;;;;;19.83;15.97;;;6.30;99.90;;;;;;5011657;28;20878;-66
2020/12/21 00:41:23;;;;;;;19.87;15.00;;;6.30;99.90;;;;;;5011836;28;20268;-64
2020/12/21 00:43:49;;;;;;;19.43;16.13;;;6.30;99.90;;;;;;5012797;28;20539;-66
2020/12/21 00:46:24;;;;;;;17.13;14.90;;;6.30;99.90;;;;;;5011874;28;20746;-67
2020/12/21 00:48:50;;;;;;;18.17;14.97;;;6.30;99.90;;;;;;5011508;28;20806;-67
2020/12/21 00:51:16;;;;;;;17.47;14.30;;;6.30;99.90;;;;;;5011377;28;20474;-67
2020/12/21 00:53:43;;;;;;;18.47;13.10;;;6.20;99.90;;;;;;5011579;28;20529;-67
2020/12/21 00:56:10;;;;;;;18.07;13.00;;;6.30;99.90;;;;;;5011674;28;20534;-65
2020/12/21 00:58:37;;;;;;;17.10;13.70;;;6.40;99.90;;;;;;5011872;28;20465;-67
2020/12/21 01:01:08;;;;;;;16.00;13.60;;;6.40;99.90;;;;;;5011844;28;20423;-64
2020/12/21 01:03:34;;;;;;;17.57;14.17;;;6.40;99.90;;;;;;5011131;28;20455;-68
2020/12/21 01:06:00;;;;;;;26.90;13.27;;;6.40;99.90;;;;;;5011591;28;20411;-66
2020/12/21 01:08:26;;;;;;;29.10;13.27;;;6.40;99.90;;;;;;5011322;28;20423;-66
2020/12/21 01:10:51;;;;;;;45.37;13.73;;;6.30;99.90;;;;;;5011662;28;20180;-66
2020/12/21 01:13:17;;;;;;;32.40;14.33;;;6.30;99.90;;;;;;5011447;28;20188;-66
2020/12/21 01:15:43;;;;;;;24.97;13.67;;;6.20;99.90;;;;;;5010892;28;20192;-68
2020/12/21 01:18:09;;;;;;;46.43;14.17;;;6.30;99.90;;;;;;5011522;28;20199;-66
2020/12/21 01:20:35;;;;;;;36.70;15.07;;;6.20;99.90;;;;;;5011015;28;20545;-66
2020/12/21 01:23:00;;;;;;;79.97;14.23;;;6.20;99.90;;;;;;5011289;28;20431;-67
2020/12/21 01:25:26;;;;;;;17.73;13.97;;;6.20;99.90;;;;;;5011319;28;20215;-67
2020/12/21 01:27:51;;;;;;;34.90;14.87;;;6.10;99.90;;;;;;5011195;28;20267;-68
2020/12/21 01:30:17;;;;;;;24.27;16.60;;;6.10;99.90;;;;;;5011252;28;20623;-66
2020/12/21 01:32:43;;;;;;;22.47;16.10;;;6.20;99.90;;;;;;5011063;28;20184;-66
2020/12/21 01:35:08;;;;;;;20.10;15.23;;;6.20;99.90;;;;;;5011124;28;20187;-66
2020/12/21 01:37:34;;;;;;;20.30;14.93;;;6.20;99.90;;;;;;4993602;28;20223;-67
2020/12/21 01:40:01;;;;;;;19.03;15.87;;;6.30;99.90;;;;;;5009845;28;20519;-68
2020/12/21 01:42:27;;;;;;;20.40;16.23;;;6.30;99.90;;;;;;5010973;28;20251;-68
2020/12/21 01:44:52;;;;;;;21.00;15.53;;;6.30;99.90;;;;;;5012792;28;20499;-67
2020/12/21 01:47:20;;;;;;;20.67;16.13;;;6.40;99.90;;;;;;5011074;28;20177;-67
2020/12/21 01:49:46;;;;;;;19.00;14.90;;;6.40;99.90;;;;;;5010735;28;20247;-67
2020/12/21 01:52:15;;;;;;;17.53;14.53;;;6.40;99.90;;;;;;5011030;28;20817;-67
2020/12/21 01:54:43;;;;;;;20.93;15.37;;;6.40;99.90;;;;;;5010923;28;20424;-66
2020/12/21 01:57:09;;;;;;;18.13;14.60;;;6.30;99.90;;;;;;5010947;28;20771;-66
2020/12/21 01:59:34;;;;;;;20.33;15.83;;;6.30;99.90;;;;;;5011045;28;20422;-64
2020/12/21 02:02:00;;;;;;;20.53;16.37;;;6.30;99.90;;;;;;5010771;28;20184;-64
2020/12/21 02:04:25;;;;;;;19.33;15.60;;;6.20;99.90;;;;;;5014114;28;20655;-67
2020/12/21 02:06:52;;;;;;;23.13;16.60;;;6.30;99.90;;;;;;5014509;28;20541;-65
2020/12/21 02:09:17;;;;;;;19.77;15.50;;;6.20;99.90;;;;;;5014211;28;20583;-66
2020/12/21 02:11:43;;;;;;;23.83;17.00;;;6.20;99.90;;;;;;5014396;28;20578;-67
2020/12/21 02:14:10;;;;;;;21.63;16.20;;;6.20;99.90;;;;;;5014100;28;20222;-67
2020/12/21 02:16:36;;;;;;;17.57;14.13;;;6.10;99.90;;;;;;5014723;28;20253;-67
2020/12/21 02:19:05;;;;;;;17.40;14.70;;;6.00;99.90;;;;;;5014115;28;20457;-65
2020/12/21 02:21:31;;;;;;;36.13;15.23;;;6.00;99.90;;;;;;5014485;28;20419;-66
2020/12/21 02:23:57;;;;;;;28.60;14.60;;;6.00;99.90;;;;;;5014235;28;20509;-65
2020/12/21 02:26:23;;;;;;;36.97;14.33;;;5.90;99.90;;;;;;5014222;28;20179;-66
2020/12/21 02:28:58;;;;;;;31.90;14.17;;;5.90;99.90;;;;;;5014359;28;20474;-65
2020/12/21 02:31:24;;;;;;;26.17;12.70;;;5.90;99.90;;;;;;5014573;28;20415;-65
2020/12/21 02:33:50;;;;;;;36.13;13.10;;;5.90;99.90;;;;;;5014027;28;20427;-67
2020/12/21 02:36:16;;;;;;;21.07;14.30;;;5.90;99.90;;;;;;5014480;28;20478;-67
2020/12/21 02:38:42;;;;;;;17.10;13.97;;;5.90;99.90;;;;;;5013923;28;20279;-67
2020/12/21 02:41:08;;;;;;;18.20;14.37;;;5.90;99.90;;;;;;5014272;28;20411;-65
2020/12/21 02:43:46;;;;;;;17.03;14.23;;;5.90;99.90;;;;;;5015673;28;20463;-67
2020/12/21 02:46:16;;;;;;;20.43;14.93;;;6.00;99.90;;;;;;5013776;28;20427;-67
2020/12/21 02:48:43;;;;;;;19.20;14.87;;;5.90;99.90;;;;;;5013595;28;20502;-66
2020/12/21 02:51:09;;;;;;;19.23;15.37;;;5.90;99.90;;;;;;4996217;28;20463;-65
2020/12/21 02:53:37;;;;;;;19.27;14.70;;;6.10;99.90;;;;;;5013735;28;20419;-67
2020/12/21 02:56:03;;;;;;;17.70;14.77;;;6.10;99.90;;;;;;5013538;28;20259;-65
2020/12/21 02:58:29;;;;;;;18.27;14.17;;;6.10;99.90;;;;;;5013614;28;20455;-67
2020/12/21 03:00:55;;;;;;;17.47;13.23;;;6.10;99.90;;;;;;5013433;28;20427;-68
2020/12/21 03:03:20;;;;;;;16.97;13.60;;;6.20;99.90;;;;;;5013447;28;20196;-65
2020/12/21 03:05:46;;;;;;;17.90;13.63;;;6.20;99.90;;;;;;5013514;28;20231;-66
2020/12/21 03:08:12;;;;;;;18.50;14.13;;;6.30;99.90;;;;;;5013477;28;20627;-68
2020/12/21 03:10:38;;;;;;;18.57;13.20;;;6.30;99.90;;;;;;5013755;28;20182;-67
2020/12/21 03:13:04;;;;;;;17.60;13.27;;;6.40;99.90;;;;;;5013298;28;20315;-67
2020/12/21 03:15:30;;;;;;;15.40;12.47;;;6.40;99.90;;;;;;5013363;28;20914;-65
2020/12/21 03:17:56;;;;;;;16.13;14.03;;;6.40;99.90;;;;;;5013281;28;20411;-65
2020/12/21 03:20:22;;;;;;;18.03;14.00;;;6.50;99.90;;;;;;5013406;28;20578;-66
2020/12/21 03:22:47;;;;;;;17.30;13.27;;;6.50;99.90;;;;;;5013566;28;20631;-68
2020/12/21 03:25:14;;;;;;;16.40;13.97;;;6.50;99.90;;;;;;5013054;28;20219;-66
2020/12/21 03:27:41;;;;;;;16.73;13.37;;;6.60;99.90;;;;;;5013256;28;20200;-66
2020/12/21 03:30:07;;;;;;;16.93;13.60;;;6.60;99.90;;;;;;5012899;28;20419;-65
2020/12/21 03:32:33;;;;;;;19.00;14.50;;;6.60;99.90;;;;;;5013012;28;20431;-66
2020/12/21 03:34:59;;;;;;;16.30;13.17;;;6.60;99.90;;;;;;5012990;28;20460;-65
2020/12/21 03:37:25;;;;;;;17.20;13.50;;;6.60;99.90;;;;;;5012995;28;20921;-68
2020/12/21 03:39:50;;;;;;;18.93;14.60;;;6.70;99.90;;;;;;5012958;28;20216;-68
2020/12/21 03:42:16;;;;;;;20.73;16.10;;;6.70;99.90;;;;;;5012619;28;20180;-66
2020/12/21 03:44:41;;;;;;;20.90;15.30;;;6.80;99.90;;;;;;5014695;28;20228;-67
2020/12/21 03:47:07;;;;;;;24.40;17.57;;;6.80;99.90;;;;;;5012679;28;20168;-66
2020/12/21 03:49:33;;;;;;;24.60;18.87;;;6.70;99.90;;;;;;5012589;28;20674;-65
2020/12/21 03:51:58;;;;;;;26.23;18.93;;;6.70;99.90;;;;;;5012715;28;20177;-67
2020/12/21 03:54:24;;;;;;;24.23;18.77;;;6.60;99.90;;;;;;5012634;28;20176;-65
2020/12/21 03:56:50;;;;;;;25.90;19.40;;;6.60;99.90;;;;;;5012525;28;20568;-67
2020/12/21 03:59:15;;;;;;;27.83;20.90;;;6.60;99.90;;;;;;5012588;28;20533;-65
2020/12/21 04:01:41;;;;;;;25.73;19.40;;;6.60;99.90;;;;;;5012655;28;20188;-67
2020/12/21 04:04:07;;;;;;;26.53;19.77;;;6.50;99.90;;;;;;5012335;28;20263;-66
2020/12/21 04:06:34;;;;;;;25.67;20.20;;;6.60;99.90;;;;;;5012590;28;20188;-67
2020/12/21 04:08:59;;;;;;;26.40;20.60;;;6.50;99.90;;;;;;5012678;28;20969;-65
2020/12/21 04:11:25;;;;;;;26.17;20.27;;;6.50;99.90;;;;;;5012331;28;20511;-67
2020/12/21 04:13:51;;;;;;;24.57;19.63;;;6.60;99.90;;;;;;5012218;28;20663;-68
2020/12/21 04:16:16;;;;;;;23.73;18.77;;;6.60;99.90;;;;;;5012147;28;20187;-68
2020/12/21 04:18:42;;;;;;;23.67;19.00;;;6.60;99.90;;;;;;5012664;28;20234;-65
2020/12/21 04:21:12;;;;;;;23.13;17.83;;;6.60;99.90;;;;;;5011916;28;20223;-67
2020/12/21 04:23:38;;;;;;;24.27;18.50;;;6.60;99.90;;;;;;5012208;28;20283;-66
2020/12/21 04:26:04;;;;;;;24.73;20.27;;;6.60;99.90;;;;;;5011392;28;20498;-66
2020/12/21 04:28:30;;;;;;;23.23;18.73;;;6.60;99.90;;;;;;5012149;28;20164;-67
2020/12/21 04:30:56;;;;;;;24.80;18.80;;;6.60;99.90;;;;;;5011812;28;20411;-67
2020/12/21 04:33:21;;;;;;;25.50;19.97;;;6.60;99.90;;;;;;5011916;28;20172;-66
2020/12/21 04:35:47;;;;;;;27.30;19.90;;;6.60;99.90;;;;;;5011850;28;20181;-67
2020/12/21 04:38:13;;;;;;;26.23;20.40;;;6.50;99.90;;;;;;5011849;28;20176;-65
2020/12/21 04:40:39;;;;;;;26.23;21.63;;;6.50;99.90;;;;;;5011862;28;21090;-67
2020/12/21 04:43:07;;;;;;;26.57;20.67;;;6.40;99.90;;;;;;5011643;28;20192;-66
2020/12/21 04:45:34;;;;;;;25.63;20.83;;;6.50;99.90;;;;;;5013601;28;20512;-64
2020/12/21 04:48:02;;;;;;;27.27;21.40;;;6.50;99.90;;;;;;5011542;28;20423;-66
2020/12/21 04:50:33;;;;;;;25.67;20.80;;;6.40;99.90;;;;;;5011371;28;20416;-66
2020/12/21 04:52:59;;;;;;;28.47;22.03;;;6.40;99.90;;;;;;5011555;28;20408;-65
2020/12/21 04:55:25;;;;;;;28.63;22.23;;;6.40;99.90;;;;;;5011361;28;20412;-66
2020/12/21 04:58:00;;;;;;;29.13;21.20;;;6.40;99.90;;;;;;5011581;28;20172;-66
2020/12/21 05:00:28;;;;;;;30.80;23.27;;;6.40;99.90;;;;;;5011442;28;20494;-67
2020/12/21 05:02:54;;;;;;;26.23;21.27;;;6.40;99.90;;;;;;5011370;28;20522;-67
2020/12/21 05:05:34;;;;;;;28.07;21.53;;;6.40;99.90;;;;;;5011281;28;20455;-66
2020/12/21 05:08:21;;;;;;;25.13;20.73;;;6.40;99.90;;;;;;5011251;28;20416;-65
2020/12/21 05:10:59;;;;;;;29.10;22.17;;;6.30;99.90;;;;;;5011234;28;20478;-65
2020/12/21 05:13:26;;;;;;;28.30;21.27;;;6.40;99.90;;;;;;5011240;28;20932;-66
2020/12/21 05:15:53;;;;;;;27.20;20.40;;;6.30;99.90;;;;;;5011165;28;20419;-65
2020/12/21 05:18:34;;;;;;;25.53;19.97;;;6.30;99.90;;;;;;5011241;28;20471;-67
2020/12/21 05:21:00;;;;;;;26.73;19.87;;;6.30;99.90;;;;;;5011397;28;20479;-66
2020/12/21 05:23:26;;;;;;;25.27;20.03;;;6.30;99.90;;;;;;5011033;28;20454;-66
2020/12/21 05:26:09;;;;;;;21.77;18.63;;;6.30;99.90;;;;;;5011080;28;20427;-66
2020/12/21 05:28:39;;;;;;;22.80;19.00;;;6.40;99.90;;;;;;4994739;28;20175;-64
2020/12/21 05:31:07;;;;;;;24.43;19.53;;;6.30;99.90;;;;;;5011193;28;20443;-65
2020/12/21 05:33:34;;;;;;;24.37;18.87;;;6.30;99.90;;;;;;5010818;28;20491;-67
2020/12/21 05:36:09;;;;;;;24.07;18.30;;;6.30;99.90;;;;;;5011074;28;20905;-66
2020/12/21 05:38:35;;;;;;;21.60;17.43;;;6.30;99.90;;;;;;5013134;28;20510;-66
2020/12/21 05:41:12;;;;;;;24.60;18.87;;;6.20;99.90;;;;;;5014924;28;20415;-65
2020/12/21 05:43:39;;;;;;;21.13;17.77;;;6.20;99.90;;;;;;5016929;28;20465;-66
2020/12/21 05:46:08;;;;;;;22.57;17.90;;;6.30;99.90;;;;;;5015127;28;20537;-66
2020/12/21 05:48:38;;;;;;;23.63;19.00;;;6.20;99.90;;;;;;5014901;28;20503;-65
2020/12/21 05:51:06;;;;;;;23.67;18.17;;;6.20;99.90;;;;;;5014696;28;20418;-65
2020/12/21 05:53:42;;;;;;;21.27;18.27;;;6.30;99.90;;;;;;5014915;28;20415;-65
2020/12/21 05:56:09;;;;;;;22.53;17.93;;;6.30;99.90;;;;;;5014911;28;20872;-67
2020/12/21 05:58:37;;;;;;;23.13;17.33;;;6.30;99.90;;;;;;5014928;28;20419;-67
2020/12/21 06:01:05;;;;;;;20.23;16.83;;;6.30;99.90;;;;;;4996859;28;20427;-65
2020/12/21 06:03:36;;;;;;;21.33;16.70;;;6.40;99.90;;;;;;5014693;28;20487;-65
2020/12/21 06:06:06;;;;;;;19.40;15.90;;;6.40;99.90;;;;;;5014517;28;20506;-66
2020/12/21 06:08:34;;;;;;;19.43;15.60;;;6.40;99.90;;;;;;5014639;28;20411;-67
2020/12/21 06:11:21;;;;;;;20.77;15.83;;;6.40;99.90;;;;;;5014587;28;20554;-66
2020/12/21 06:14:08;;;;;;;19.30;14.63;;;6.40;99.90;;;;;;5014520;28;20427;-67
2020/12/21 06:16:36;;;;;;;19.10;14.37;;;6.40;99.90;;;;;;5014584;28;20426;-66
2020/12/21 06:19:04;;;;;;;20.13;15.93;;;6.50;99.90;;;;;;5014136;28;20518;-67
2020/12/21 06:21:34;;;;;;;20.63;15.30;;;6.50;99.90;;;;;;5014447;28;20434;-65
2020/12/21 06:24:00;;;;;;;17.73;14.63;;;6.50;99.90;;;;;;5014400;28;20802;-65
2020/12/21 06:26:38;;;;;;;19.97;15.27;;;6.50;99.90;;;;;;5014139;28;20404;-67
2020/12/21 06:29:09;;;;;;;23.07;15.83;;;6.50;99.90;;;;;;5014276;28;20967;-64
2020/12/21 06:31:42;;;;;;;22.53;16.27;;;6.50;99.90;;;;;;5014397;28;20458;-65
2020/12/21 06:34:11;;;;;;;22.07;16.27;;;6.50;99.90;;;;;;5014202;28;20423;-64
2020/12/21 06:36:36;;;;;;;21.33;15.90;;;6.50;99.90;;;;;;5013952;28;20427;-65
2020/12/21 06:39:04;;;;;;;22.73;16.63;;;6.40;99.90;;;;;;5014142;28;20486;-65
2020/12/21 06:41:29;;;;;;;22.90;15.10;;;6.30;99.90;;;;;;5014263;28;20247;-66
2020/12/21 06:43:55;;;;;;;21.30;15.80;;;6.30;99.90;;;;;;5016419;28;20949;-65
2020/12/21 06:46:21;;;;;;;19.33;15.87;;;6.20;99.90;;;;;;5014011;28;20181;-66
2020/12/21 06:49:01;;;;;;;18.27;15.37;;;6.30;99.90;;;;;;4995868;28;20188;-66
2020/12/21 06:51:26;;;;;;;19.73;14.93;;;6.40;99.90;;;;;;5014011;28;20423;-64
2020/12/21 06:53:59;;;;;;;19.17;15.77;;;6.40;99.90;;;;;;5013509;28;20570;-63
2020/12/21 06:56:26;;;;;;;22.10;15.63;;;6.40;99.90;;;;;;5013593;28;20653;-65
2020/12/21 06:58:53;;;;;;;20.07;16.00;;;6.50;99.90;;;;;;5013783;28;20422;-66
2020/12/21 07:01:21;;;;;;;21.13;15.33;;;6.50;99.90;;;;;;4995919;28;21000;-65
2020/12/21 07:03:47;;;;;;;21.50;15.40;;;6.50;99.90;;;;;;5013595;28;20459;-65
2020/12/21 07:06:13;;;;;;;18.13;14.87;;;6.50;99.90;;;;;;5013180;28;20423;-66
2020/12/21 07:08:39;;;;;;;20.43;15.83;;;6.50;99.90;;;;;;5000404;28;20514;-66
2020/12/21 07:11:05;;;;;;;21.47;16.10;;;6.40;99.90;;;;;;4993723;28;20519;-65
2020/12/21 07:13:33;;;;;;;23.47;16.17;;;6.50;99.90;;;;;;4993914;28;20196;-67
2020/12/21 07:16:00;;;;;;;19.60;15.03;;;6.50;99.90;;;;;;5008849;28;20232;-65
2020/12/21 07:18:26;;;;;;;21.40;17.50;;;6.50;99.90;;;;;;5013159;28;20451;-65
2020/12/21 07:20:54;;;;;;;22.20;17.53;;;6.40;99.90;;;;;;5012784;28;20419;-67
2020/12/21 07:23:20;;;;;;;24.57;19.13;;;6.50;99.90;;;;;;5012618;28;20177;-67
2020/12/21 07:25:52;;;;;;;22.87;19.07;;;6.60;99.90;;;;;;5012755;28;20518;-66
2020/12/21 07:28:28;;;;;;;23.07;18.67;;;6.50;99.90;;;;;;4993230;28;20412;-68
2020/12/21 07:31:10;;;;;;;26.57;19.90;;;6.60;99.90;;;;;;4993455;28;20412;-66
2020/12/21 07:33:54;;;;;;;30.67;20.57;;;6.50;99.90;;;;;;4993230;28;20456;-66
2020/12/21 07:36:22;;;;;;;26.77;19.67;;;6.50;99.90;;;;;;4993033;28;20420;-66
2020/12/21 07:38:48;;;;;;;30.43;19.57;;;6.50;99.90;;;;;;4993202;28;20420;-66
2020/12/21 07:41:15;;;;;;;29.27;19.17;;;6.50;99.90;;;;;;4993326;28;20435;-65
2020/12/21 07:43:49;;;;;;;43.27;18.73;;;6.50;99.90;;;;;;4992882;28;20546;-67
2020/12/21 07:46:20;;;;;;;34.87;17.73;;;6.40;99.90;;;;;;5012439;28;20833;-66
2020/12/21 07:48:48;;;;;;;60.90;18.87;;;6.40;99.90;;;;;;5012548;28;20782;-64
2020/12/21 07:51:17;;;;;;;30.83;18.00;;;6.40;99.90;;;;;;5012360;28;20408;-67
2020/12/21 07:53:43;;;;;;;42.13;18.93;;;6.40;99.90;;;;;;5012448;28;20435;-67
2020/12/21 07:56:14;;;;;;;30.63;18.73;;;6.30;99.90;;;;;;5012473;28;20773;-68
2020/12/21 07:58:40;;;;;;;33.37;19.17;;;6.40;99.90;;;;;;5015184;28;20168;-64
2020/12/21 08:01:05;;;;;;;27.50;19.37;;;6.40;99.90;;;;;;5031167;28;20445;-66
2020/12/21 08:03:31;;;;;;;23.67;18.23;;;6.40;99.90;;;;;;5032172;28;20203;-68
2020/12/21 08:06:12;;;;;;;25.37;17.87;;;6.40;99.90;;;;;;5011130;28;20200;-66
2020/12/21 08:08:39;;;;;;;29.63;18.20;;;6.40;99.90;;;;;;5012008;28;20296;-64
2020/12/21 08:11:11;;;;;;;26.13;17.50;;;6.50;99.90;;;;;;5012219;28;20415;-66
2020/12/21 08:13:37;;;;;;;31.47;17.90;;;6.50;99.90;;;;;;5012207;28;20769;-65
2020/12/21 08:16:09;;;;;;;23.90;18.80;;;6.50;99.90;;;;;;5011998;28;20418;-66
2020/12/21 08:18:36;;;;;;;21.03;17.53;;;6.50;99.90;;;;;;5011933;28;20416;-65
2020/12/21 08:21:02;;;;;;;21.77;18.10;;;6.50;99.90;;;;;;5011903;28;20518;-66
2020/12/21 08:23:29;;;;;;;21.40;17.53;;;6.60;99.90;;;;;;5011992;28;20416;-66
2020/12/21 08:25:55;;;;;;;21.80;18.23;;;6.50;99.90;;;;;;5026901;28;20410;-66
2020/12/21 08:28:33;;;;;;;21.87;18.17;;;6.50;99.90;;;;;;5031599;28;20429;-65
2020/12/21 08:31:07;;;;;;;22.47;19.07;;;6.50;99.90;;;;;;5031456;28;20969;-65
2020/12/21 08:33:33;;;;;;;26.03;19.77;;;6.60;99.90;;;;;;5031511;28;20421;-65
2020/12/21 08:36:22;;;;;;;25.73;20.50;;;6.60;99.90;;;;;;5010229;28;20427;-64
2020/12/21 08:39:15;;;;;;;30.40;21.77;;;6.60;99.90;;;;;;5011920;28;20837;-66
2020/12/21 08:41:51;;;;;;;32.27;19.90;;;6.60;99.90;;;;;;5017338;28;20466;-65
2020/12/21 08:44:25;;;;;;;54.17;22.53;;;6.60;99.90;;;;;;5030170;28;20482;-65
2020/12/21 08:46:53;;;;;;;36.13;22.40;;;6.60;99.90;;;;;;5011582;28;20885;-65
2020/12/21 08:49:22;;;;;;;36.10;22.37;;;6.60;99.90;;;;;;5011109;28;20435;-66
2020/12/21 08:51:49;;;;;;;34.77;21.47;;;6.60;99.90;;;;;;5011377;28;20418;-66
2020/12/21 08:54:15;;;;;;;42.00;23.10;;;6.70;99.90;;;;;;4993511;28;20792;-68
2020/12/21 08:56:49;;;;;;;40.47;20.87;;;6.60;99.90;;;;;;5011476;28;20905;-68
2020/12/21 08:59:18;;;;;;;38.23;20.50;;;6.60;99.90;;;;;;5010850;28;20419;-67
2020/12/21 09:01:44;;;;;;;43.43;21.70;;;6.50;99.90;;;;;;5011308;28;20547;-66
2020/12/21 09:04:10;;;;;;;38.63;22.07;;;6.50;99.90;;;;;;5011090;28;20454;-64
2020/12/21 09:06:36;;;;;;;38.97;22.40;;;6.50;99.90;;;;;;5011163;28;20506;-66
2020/12/21 09:09:02;;;;;;;29.80;21.53;;;6.50;99.90;;;;;;5011195;28;20829;-67
2020/12/21 09:11:28;;;;;;;33.17;23.10;;;6.60;99.90;;;;;;5011286;28;20183;-66
2020/12/21 09:13:53;;;;;;;36.57;22.00;;;6.50;99.90;;;;;;4992949;28;20789;-65
2020/12/21 09:16:24;;;;;;;32.30;22.27;;;6.60;99.90;;;;;;5011026;28;20180;-64
2020/12/21 09:18:51;;;;;;;30.80;21.37;;;6.60;99.90;;;;;;5010709;28;20242;-68
2020/12/21 09:21:18;;;;;;;30.20;22.50;;;6.60;99.90;;;;;;5011136;28;20478;-68
2020/12/21 09:23:44;;;;;;;42.43;23.20;;;6.60;99.90;;;;;;5010603;28;20478;-67
2020/12/21 09:26:09;;;;;;;41.80;22.70;;;6.70;99.90;;;;;;5011039;28;20442;-68
2020/12/21 09:28:35;;;;;;;37.10;22.93;;;6.70;99.90;;;;;;5010807;28;20192;-66
2020/12/21 09:31:01;;;;;;;31.27;20.87;;;6.70;99.90;;;;;;5011212;28;20634;-64
2020/12/21 09:33:26;;;;;;;33.43;23.00;;;6.70;99.90;;;;;;5011020;28;20179;-69
2020/12/21 09:35:52;;;;;;;36.30;24.53;;;6.70;99.90;;;;;;5010655;28;20184;-69
2020/12/21 09:38:17;;;;;;;30.63;23.03;;;6.80;99.90;;;;;;5011101;28;20177;-66
2020/12/21 09:40:43;;;;;;;33.43;21.70;;;6.80;99.90;;;;;;5009404;28;20176;-67
2020/12/21 09:43:08;;;;;;;28.17;21.77;;;6.80;99.90;;;;;;4974780;28;20171;-67
2020/12/21 09:45:34;;;;;;;33.70;23.63;;;6.80;99.90;;;;;;5006265;28;20537;-68
2020/12/21 09:48:00;;;;;;;30.23;23.20;;;6.80;99.90;;;;;;5010560;28;20173;-68
2020/12/21 09:50:25;;;;;;;30.97;23.53;;;6.90;99.90;;;;;;5010822;28;20211;-65
2020/12/21 09:52:51;;;;;;;30.33;21.63;;;6.90;99.90;;;;;;5010706;28;20665;-66
2020/12/21 09:55:16;;;;;;;30.67;23.47;;;6.90;99.90;;;;;;5010703;28;20184;-67
2020/12/21 09:57:42;;;;;;;28.10;22.63;;;6.90;99.90;;;;;;5010808;28;20231;-68
2020/12/21 10:00:08;;;;;;;35.07;23.70;;;7.00;99.90;;;;;;5010502;28;20180;-69
2020/12/21 10:02:33;;;;;;;28.83;23.30;;;7.00;99.90;;;;;;5011019;28;20222;-67
2020/12/21 10:04:59;;;;;;;32.87;23.37;;;7.10;99.90;;;;;;5010585;28;20555;-64
2020/12/21 10:07:25;;;;;;;28.93;22.83;;;7.10;99.90;;;;;;5010517;28;20173;-67
2020/12/21 10:09:50;;;;;;;34.97;25.17;;;7.00;99.90;;;;;;5010815;28;20235;-67
2020/12/21 10:12:16;;;;;;;31.97;25.27;;;7.10;99.90;;;;;;5010221;28;20180;-65
2020/12/21 10:14:43;;;;;;;31.47;24.10;;;7.10;99.90;;;;;;5010709;28;20177;-68
2020/12/21 10:17:09;;;;;;;31.33;24.63;;;7.20;99.90;;;;;;5010273;28;20184;-63
2020/12/21 10:19:34;;;;;;;32.03;24.50;;;7.20;99.90;;;;;;5010709;28;20427;-66
2020/12/21 10:22:00;;;;;;;34.13;25.03;;;7.20;99.90;;;;;;5010754;28;20985;-68
2020/12/21 10:24:25;;;;;;;28.07;22.70;;;7.20;99.90;;;;;;5011794;28;20215;-66
2020/12/21 10:26:51;;;;;;;32.30;24.53;;;7.30;99.90;;;;;;5014079;28;20200;-66
2020/12/21 10:29:17;;;;;;;29.93;22.63;;;7.30;99.90;;;;;;5013898;28;20183;-66
2020/12/21 10:31:42;;;;;;;36.70;26.07;;;7.30;99.90;;;;;;5014053;28;20188;-66
2020/12/21 10:34:08;;;;;;;31.90;25.27;;;7.30;99.90;;;;;;5014195;28;20176;-66
2020/12/21 10:36:33;;;;;;;30.87;23.87;;;7.30;99.90;;;;;;5013725;28;20654;-65
2020/12/21 10:38:59;;;;;;;33.83;25.67;;;7.30;99.90;;;;;;5014027;28;20262;-66
2020/12/21 10:41:30;;;;;;;33.10;24.60;;;7.30;99.90;;;;;;5013661;28;20181;-66
2020/12/21 10:43:56;;;;;;;33.30;24.83;;;7.30;99.90;;;;;;5013917;28;20246;-66
2020/12/21 10:46:21;;;;;;;31.87;24.43;;;7.30;99.90;;;;;;5016604;28;20965;-66
2020/12/21 10:48:48;;;;;;;31.57;25.53;;;7.40;99.90;;;;;;5013664;28;20587;-67
2020/12/21 10:51:14;;;;;;;29.53;23.47;;;7.40;99.90;;;;;;5013827;28;20177;-66
2020/12/21 10:53:39;;;;;;;27.30;23.13;;;7.50;99.90;;;;;;5013579;28;20773;-66
2020/12/21 10:56:10;;;;;;;27.50;22.80;;;7.50;99.90;;;;;;5005248;28;20177;-66
2020/12/21 10:58:35;;;;;;;29.60;23.90;;;7.60;99.90;;;;;;4994132;28;20177;-66
2020/12/21 11:01:01;;;;;;;30.07;22.03;;;7.60;99.90;;;;;;4993691;28;20911;-66
2020/12/21 11:03:26;;;;;;;26.10;21.70;;;7.60;99.90;;;;;;4993855;28;20660;-65
2020/12/21 11:05:52;;;;;;;28.17;22.33;;;7.50;99.90;;;;;;4993633;28;20607;-67
2020/12/21 11:08:17;;;;;;;30.13;21.97;;;7.50;99.90;;;;;;5009437;28;20177;-66
2020/12/21 11:10:43;;;;;;;29.07;24.07;;;7.50;99.90;;;;;;5013192;28;20184;-66
2020/12/21 11:13:08;;;;;;;34.80;24.77;;;7.60;99.90;;;;;;5000675;28;20264;-66
2020/12/21 11:15:34;;;;;;;29.63;23.10;;;7.70;99.90;;;;;;4993974;28;20177;-67
2020/12/21 11:17:59;;;;;;;29.03;22.83;;;7.70;99.90;;;;;;4993604;28;20252;-66
2020/12/21 11:20:25;;;;;;;27.57;21.40;;;7.80;99.90;;;;;;4993664;28;20655;-65
2020/12/21 11:22:50;;;;;;;30.30;22.87;;;8.00;99.90;;;;;;4993630;28;20183;-65
2020/12/21 11:25:16;;;;;;;30.30;24.00;;;8.10;99.90;;;;;;4992914;28;20248;-66
2020/12/21 11:27:42;;;;;;;22.73;19.53;;;8.30;99.90;;;;;;4993708;28;20185;-68
2020/12/21 11:30:07;;;;;;;24.87;19.27;;;8.40;99.90;;;;;;4993697;28;21572;-67
2020/12/21 11:32:33;;;;;;;25.03;18.77;;;8.40;99.90;;;;;;5007422;28;20180;-66
2020/12/21 11:34:59;;;;;;;26.50;19.67;;;8.40;99.90;;;;;;5005068;28;20181;-66
2020/12/21 11:37:24;;;;;;;22.63;18.93;;;8.30;99.90;;;;;;4993100;28;20529;-64
2020/12/21 11:39:50;;;;;;;24.67;20.27;;;8.30;99.90;;;;;;4993156;28;20185;-66
2020/12/21 11:42:15;;;;;;;26.47;19.60;;;8.30;99.90;;;;;;4992886;28;20177;-66
2020/12/21 11:44:41;;;;;;;22.07;17.70;;;8.40;99.90;;;;;;4998679;28;20216;-67
2020/12/21 11:47:11;;;;;;;21.93;15.80;;;8.40;99.90;;;;;;5012819;28;20320;-67
2020/12/21 11:49:37;;;;;;;15.50;11.50;;;8.30;99.90;;;;;;5013029;28;20180;-66
2020/12/21 11:52:03;;;;;;;17.90;15.47;;;8.20;99.90;;;;;;5012411;28;20940;-67
2020/12/21 11:54:29;;;;;;;20.90;16.27;;;8.20;99.90;;;;;;5012436;28;20420;-65
2020/12/21 11:56:55;;;;;;;17.87;13.43;;;8.20;99.90;;;;;;5012134;28;20905;-66
2020/12/21 11:59:21;;;;;;;19.17;14.03;;;8.20;99.90;;;;;;5012291;28;20185;-66
2020/12/21 12:01:46;;;;;;;21.63;15.67;;;8.20;99.90;;;;;;5012400;28;20430;-65
2020/12/21 12:04:12;;;;;;;16.50;14.10;;;8.30;99.90;;;;;;5011971;28;20270;-65
2020/12/21 12:06:37;;;;;;;19.77;15.57;;;8.30;99.90;;;;;;5012668;28;20209;-65
2020/12/21 12:09:03;;;;;;;22.07;14.60;;;8.50;99.90;;;;;;5012004;28;20180;-65
2020/12/21 12:11:29;;;;;;;17.97;14.53;;;8.50;99.90;;;;;;5012294;28;20173;-66
2020/12/21 12:13:54;;;;;;;17.27;13.03;;;8.50;99.90;;;;;;5012358;28;20653;-66
2020/12/21 12:16:22;;;;;;;18.37;14.63;;;8.50;99.90;;;;;;5012010;28;20552;-66
2020/12/21 12:18:47;;;;;;;17.83;14.80;;;8.40;99.90;;;;;;4992615;28;20184;-66
2020/12/21 12:21:23;;;;;;;17.00;13.67;;;8.40;99.90;;;;;;4992145;28;20523;-66
2020/12/21 12:23:49;;;;;;;18.80;15.23;;;8.50;99.90;;;;;;5009348;28;20294;-66
2020/12/21 12:26:18;;;;;;;18.20;14.50;;;8.50;99.90;;;;;;5011785;28;20510;-65
2020/12/21 12:28:44;;;;;;;19.00;13.30;;;8.50;99.90;;;;;;5012060;28;20262;-65
2020/12/21 12:31:19;;;;;;;13.83;12.33;;;8.50;99.90;;;;;;5011922;28;20865;-64
2020/12/21 12:33:45;;;;;;;14.27;11.80;;;8.60;99.90;;;;;;5011485;28;20176;-66
2020/12/21 12:36:19;;;;;;;14.83;12.37;;;8.60;99.90;;;;;;5011654;28;20416;-65
2020/12/21 12:38:45;;;;;;;16.97;12.57;;;8.60;99.90;;;;;;5011555;28;20423;-66